sensor_id;sensor_type;location;lat;lon;timestamp;P1;durP1;ratioP1;P2;durP2;ratioP2
5032;SDS011;2535;49.888;8.942;2023-08-17T00:01:29;18.20;;;2.60;;
5032;SDS011;2535;49.888;8.942;2023-08-17T00:03:55;25.17;;;2.77;;
5032;SDS011;2535;49.888;8.942;2023-08-17T00:06:21;18.90;;;2.97;;
5032;SDS011;2535;49.888;8.942;2023-08-17T00:08:47;20.30;;;2.87;;
5032;SDS011;2535;49.888;8.942;2023-08-17T00:11:13;18.00;;;3.17;;
5032;SDS011;2535;49.888;8.942;2023-08-17T00:13:39;17.60;;;2.50;;
5032;SDS011;2535;49.888;8.942;2023-08-17T00:16:05;25.53;;;2.77;;
5032;SDS011;2535;49.888;8.942;2023-08-17T00:18:31;21.97;;;2.87;;
5032;SDS011;2535;49.888;8.942;2023-08-17T00:20:57;17.50;;;2.50;;
5032;SDS011;2535;49.888;8.942;2023-08-17T00:23:23;17.87;;;3.03;;
5032;SDS011;2535;49.888;8.942;2023-08-17T00:25:49;17.60;;;2.07;;
5032;SDS011;2535;49.888;8.942;2023-08-17T00:28:15;18.60;;;2.50;;
5032;SDS011;2535;49.888;8.942;2023-08-17T00:30:40;17.20;;;2.30;;
5032;SDS011;2535;49.888;8.942;2023-08-17T00:33:06;17.40;;;2.60;;
5032;SDS011;2535;49.888;8.942;2023-08-17T00:35:33;19.43;;;2.67;;
5032;SDS011;2535;49.888;8.942;2023-08-17T00:37:59;18.00;;;2.60;;
5032;SDS011;2535;49.888;8.942;2023-08-17T00:40:25;17.40;;;2.40;;
5032;SDS011;2535;49.888;8.942;2023-08-17T00:42:51;17.60;;;2.40;;
5032;SDS011;2535;49.888;8.942;2023-08-17T00:45:17;18.20;;;2.60;;
5032;SDS011;2535;49.888;8.942;2023-08-17T00:47:44;16.97;;;1.93;;
5032;SDS011;2535;49.888;8.942;2023-08-17T00:50:10;16.90;;;2.50;;
5032;SDS011;2535;49.888;8.942;2023-08-17T00:52:37;17.40;;;2.60;;
5032;SDS011;2535;49.888;8.942;2023-08-17T00:55:03;17.10;;;2.47;;
5032;SDS011;2535;49.888;8.942;2023-08-17T00:57:31;21.10;;;2.87;;
5032;SDS011;2535;49.888;8.942;2023-08-17T00:59:57;17.57;;;2.17;;
5032;SDS011;2535;49.888;8.942;2023-08-17T01:02:23;20.50;;;3.67;;
5032;SDS011;2535;49.888;8.942;2023-08-17T01:04:50;18.30;;;3.03;;
5032;SDS011;2535;49.888;8.942;2023-08-17T01:07:16;17.57;;;2.67;;
5032;SDS011;2535;49.888;8.942;2023-08-17T01:09:42;18.20;;;3.00;;
5032;SDS011;2535;49.888;8.942;2023-08-17T01:12:10;21.23;;;2.67;;
5032;SDS011;2535;49.888;8.942;2023-08-17T01:14:45;19.17;;;3.80;;
5032;SDS011;2535;49.888;8.942;2023-08-17T01:17:15;21.80;;;2.93;;
5032;SDS011;2535;49.888;8.942;2023-08-17T01:19:43;19.47;;;3.47;;
5032;SDS011;2535;49.888;8.942;2023-08-17T01:22:10;19.03;;;3.80;;
5032;SDS011;2535;49.888;8.942;2023-08-17T01:24:38;18.00;;;2.77;;
5032;SDS011;2535;49.888;8.942;2023-08-17T01:27:04;17.97;;;2.90;;
5032;SDS011;2535;49.888;8.942;2023-08-17T01:29:30;19.07;;;2.87;;
5032;SDS011;2535;49.888;8.942;2023-08-17T01:34:25;17.80;;;2.87;;
5032;SDS011;2535;49.888;8.942;2023-08-17T01:36:54;17.93;;;2.57;;
5032;SDS011;2535;49.888;8.942;2023-08-17T01:39:22;20.47;;;3.23;;
5032;SDS011;2535;49.888;8.942;2023-08-17T01:41:49;19.70;;;3.10;;
5032;SDS011;2535;49.888;8.942;2023-08-17T01:44:16;17.80;;;2.53;;
5032;SDS011;2535;49.888;8.942;2023-08-17T01:46:42;17.40;;;2.77;;
5032;SDS011;2535;49.888;8.942;2023-08-17T01:49:09;17.07;;;2.37;;
5032;SDS011;2535;49.888;8.942;2023-08-17T01:51:35;18.90;;;2.60;;
5032;SDS011;2535;49.888;8.942;2023-08-17T01:54:01;18.70;;;2.70;;
5032;SDS011;2535;49.888;8.942;2023-08-17T01:56:26;20.40;;;2.80;;
5032;SDS011;2535;49.888;8.942;2023-08-17T01:58:52;19.23;;;2.80;;
5032;SDS011;2535;49.888;8.942;2023-08-17T02:01:18;19.63;;;2.73;;
5032;SDS011;2535;49.888;8.942;2023-08-17T02:03:44;18.33;;;2.90;;
5032;SDS011;2535;49.888;8.942;2023-08-17T02:06:10;17.93;;;3.03;;
5032;SDS011;2535;49.888;8.942;2023-08-17T02:08:37;18.30;;;2.60;;
5032;SDS011;2535;49.888;8.942;2023-08-17T02:11:03;18.50;;;2.87;;
5032;SDS011;2535;49.888;8.942;2023-08-17T02:13:29;18.10;;;2.83;;
5032;SDS011;2535;49.888;8.942;2023-08-17T02:15:55;17.70;;;2.90;;
5032;SDS011;2535;49.888;8.942;2023-08-17T02:18:21;16.90;;;2.70;;
5032;SDS011;2535;49.888;8.942;2023-08-17T02:20:47;19.27;;;3.00;;
5032;SDS011;2535;49.888;8.942;2023-08-17T02:23:13;17.70;;;2.83;;
5032;SDS011;2535;49.888;8.942;2023-08-17T02:25:39;17.83;;;2.70;;
5032;SDS011;2535;49.888;8.942;2023-08-17T02:28:05;22.90;;;3.13;;
5032;SDS011;2535;49.888;8.942;2023-08-17T02:30:32;19.40;;;3.30;;
5032;SDS011;2535;49.888;8.942;2023-08-17T02:32:58;19.60;;;2.87;;
5032;SDS011;2535;49.888;8.942;2023-08-17T02:35:24;17.70;;;2.63;;
5032;SDS011;2535;49.888;8.942;2023-08-17T02:37:50;21.63;;;3.37;;
5032;SDS011;2535;49.888;8.942;2023-08-17T02:40:16;20.27;;;3.07;;
5032;SDS011;2535;49.888;8.942;2023-08-17T02:42:42;19.70;;;2.83;;
5032;SDS011;2535;49.888;8.942;2023-08-17T02:45:08;18.37;;;2.80;;
5032;SDS011;2535;49.888;8.942;2023-08-17T02:47:34;24.50;;;3.87;;
5032;SDS011;2535;49.888;8.942;2023-08-17T02:50:01;17.53;;;2.70;;
5032;SDS011;2535;49.888;8.942;2023-08-17T02:52:26;18.60;;;2.87;;
5032;SDS011;2535;49.888;8.942;2023-08-17T02:54:52;18.53;;;2.70;;
5032;SDS011;2535;49.888;8.942;2023-08-17T02:57:18;19.07;;;3.17;;
5032;SDS011;2535;49.888;8.942;2023-08-17T02:59:44;19.10;;;2.73;;
5032;SDS011;2535;49.888;8.942;2023-08-17T03:02:10;17.57;;;2.47;;
5032;SDS011;2535;49.888;8.942;2023-08-17T03:04:36;17.13;;;2.27;;
5032;SDS011;2535;49.888;8.942;2023-08-17T03:07:02;17.77;;;2.80;;
5032;SDS011;2535;49.888;8.942;2023-08-17T03:09:28;18.80;;;3.10;;
5032;SDS011;2535;49.888;8.942;2023-08-17T03:11:54;18.17;;;3.23;;
5032;SDS011;2535;49.888;8.942;2023-08-17T03:14:20;17.67;;;2.40;;
5032;SDS011;2535;49.888;8.942;2023-08-17T03:16:46;18.20;;;2.87;;
5032;SDS011;2535;49.888;8.942;2023-08-17T03:19:12;19.77;;;3.40;;
5032;SDS011;2535;49.888;8.942;2023-08-17T03:21:38;19.17;;;3.30;;
5032;SDS011;2535;49.888;8.942;2023-08-17T03:24:04;17.67;;;3.33;;
5032;SDS011;2535;49.888;8.942;2023-08-17T03:26:30;18.97;;;3.50;;
5032;SDS011;2535;49.888;8.942;2023-08-17T03:28:56;21.80;;;3.87;;
5032;SDS011;2535;49.888;8.942;2023-08-17T03:31:22;20.53;;;3.50;;
5032;SDS011;2535;49.888;8.942;2023-08-17T03:33:48;20.10;;;4.07;;
5032;SDS011;2535;49.888;8.942;2023-08-17T03:36:14;19.30;;;3.73;;
5032;SDS011;2535;49.888;8.942;2023-08-17T03:38:40;19.80;;;3.70;;
5032;SDS011;2535;49.888;8.942;2023-08-17T03:41:06;19.40;;;3.27;;
5032;SDS011;2535;49.888;8.942;2023-08-17T03:43:33;18.50;;;2.87;;
5032;SDS011;2535;49.888;8.942;2023-08-17T03:45:59;21.87;;;3.30;;
5032;SDS011;2535;49.888;8.942;2023-08-17T03:48:25;23.50;;;3.50;;
5032;SDS011;2535;49.888;8.942;2023-08-17T03:50:54;19.50;;;3.20;;
5032;SDS011;2535;49.888;8.942;2023-08-17T03:53:20;18.80;;;3.20;;
5032;SDS011;2535;49.888;8.942;2023-08-17T03:55:47;20.47;;;3.50;;
5032;SDS011;2535;49.888;8.942;2023-08-17T03:58:13;17.83;;;2.93;;
5032;SDS011;2535;49.888;8.942;2023-08-17T04:00:39;19.13;;;2.83;;
5032;SDS011;2535;49.888;8.942;2023-08-17T04:03:05;19.10;;;3.23;;
5032;SDS011;2535;49.888;8.942;2023-08-17T04:05:31;19.17;;;3.03;;
5032;SDS011;2535;49.888;8.942;2023-08-17T04:07:58;17.80;;;2.50;;
5032;SDS011;2535;49.888;8.942;2023-08-17T04:10:27;19.07;;;3.40;;
5032;SDS011;2535;49.888;8.942;2023-08-17T04:12:53;17.30;;;2.50;;
5032;SDS011;2535;49.888;8.942;2023-08-17T04:15:19;18.40;;;3.07;;
5032;SDS011;2535;49.888;8.942;2023-08-17T04:17:45;17.47;;;2.67;;
5032;SDS011;2535;49.888;8.942;2023-08-17T04:20:11;19.10;;;2.93;;
5032;SDS011;2535;49.888;8.942;2023-08-17T04:22:37;17.77;;;2.87;;
5032;SDS011;2535;49.888;8.942;2023-08-17T04:25:03;18.50;;;3.33;;
5032;SDS011;2535;49.888;8.942;2023-08-17T04:27:29;19.17;;;3.07;;
5032;SDS011;2535;49.888;8.942;2023-08-17T04:29:55;19.87;;;2.93;;
5032;SDS011;2535;49.888;8.942;2023-08-17T04:32:21;25.20;;;3.70;;
5032;SDS011;2535;49.888;8.942;2023-08-17T04:34:47;17.87;;;2.60;;
5032;SDS011;2535;49.888;8.942;2023-08-17T04:37:13;24.97;;;4.40;;
5032;SDS011;2535;49.888;8.942;2023-08-17T04:39:39;20.67;;;4.03;;
5032;SDS011;2535;49.888;8.942;2023-08-17T04:42:06;17.87;;;3.47;;
5032;SDS011;2535;49.888;8.942;2023-08-17T04:44:32;20.80;;;3.83;;
5032;SDS011;2535;49.888;8.942;2023-08-17T04:46:58;20.63;;;3.73;;
5032;SDS011;2535;49.888;8.942;2023-08-17T04:49:24;23.60;;;3.80;;
5032;SDS011;2535;49.888;8.942;2023-08-17T04:51:51;19.13;;;3.63;;
5032;SDS011;2535;49.888;8.942;2023-08-17T04:54:17;19.77;;;3.60;;
5032;SDS011;2535;49.888;8.942;2023-08-17T04:56:43;22.70;;;3.77;;
5032;SDS011;2535;49.888;8.942;2023-08-17T04:59:09;23.07;;;4.20;;
5032;SDS011;2535;49.888;8.942;2023-08-17T05:01:35;24.80;;;5.03;;
5032;SDS011;2535;49.888;8.942;2023-08-17T05:04:02;20.53;;;4.00;;
5032;SDS011;2535;49.888;8.942;2023-08-17T05:06:28;23.30;;;4.73;;
5032;SDS011;2535;49.888;8.942;2023-08-17T05:08:54;20.03;;;3.83;;
5032;SDS011;2535;49.888;8.942;2023-08-17T05:11:20;18.87;;;3.87;;
5032;SDS011;2535;49.888;8.942;2023-08-17T05:13:46;23.23;;;3.83;;
5032;SDS011;2535;49.888;8.942;2023-08-17T05:16:12;22.73;;;4.80;;
5032;SDS011;2535;49.888;8.942;2023-08-17T05:18:38;24.20;;;4.77;;
5032;SDS011;2535;49.888;8.942;2023-08-17T05:21:04;22.53;;;4.77;;
5032;SDS011;2535;49.888;8.942;2023-08-17T05:23:30;25.53;;;5.03;;
5032;SDS011;2535;49.888;8.942;2023-08-17T05:25:56;23.17;;;5.77;;
5032;SDS011;2535;49.888;8.942;2023-08-17T05:28:22;25.70;;;4.27;;
5032;SDS011;2535;49.888;8.942;2023-08-17T05:30:48;22.70;;;4.20;;
5032;SDS011;2535;49.888;8.942;2023-08-17T05:33:14;25.60;;;5.23;;
5032;SDS011;2535;49.888;8.942;2023-08-17T05:35:40;21.50;;;4.63;;
5032;SDS011;2535;49.888;8.942;2023-08-17T05:38:07;20.80;;;4.30;;
5032;SDS011;2535;49.888;8.942;2023-08-17T05:40:34;22.57;;;3.90;;
5032;SDS011;2535;49.888;8.942;2023-08-17T05:43:00;22.33;;;4.70;;
5032;SDS011;2535;49.888;8.942;2023-08-17T05:45:26;19.17;;;3.47;;
5032;SDS011;2535;49.888;8.942;2023-08-17T05:47:52;19.57;;;3.20;;
5032;SDS011;2535;49.888;8.942;2023-08-17T05:50:18;26.13;;;4.80;;
5032;SDS011;2535;49.888;8.942;2023-08-17T05:52:44;22.30;;;4.93;;
5032;SDS011;2535;49.888;8.942;2023-08-17T05:55:10;20.67;;;4.17;;
5032;SDS011;2535;49.888;8.942;2023-08-17T05:57:36;21.87;;;4.10;;
5032;SDS011;2535;49.888;8.942;2023-08-17T06:00:02;26.37;;;5.20;;
5032;SDS011;2535;49.888;8.942;2023-08-17T06:02:28;19.70;;;3.23;;
5032;SDS011;2535;49.888;8.942;2023-08-17T06:04:54;25.13;;;4.53;;
5032;SDS011;2535;49.888;8.942;2023-08-17T06:07:20;22.10;;;4.37;;
5032;SDS011;2535;49.888;8.942;2023-08-17T06:09:46;23.67;;;3.97;;
5032;SDS011;2535;49.888;8.942;2023-08-17T06:12:12;19.30;;;3.77;;
5032;SDS011;2535;49.888;8.942;2023-08-17T06:14:38;18.00;;;3.20;;
5032;SDS011;2535;49.888;8.942;2023-08-17T06:17:04;17.00;;;2.93;;
5032;SDS011;2535;49.888;8.942;2023-08-17T06:19:30;19.60;;;2.77;;
5032;SDS011;2535;49.888;8.942;2023-08-17T06:21:55;16.80;;;2.60;;
5032;SDS011;2535;49.888;8.942;2023-08-17T06:24:21;17.20;;;2.60;;
5032;SDS011;2535;49.888;8.942;2023-08-17T06:26:47;15.80;;;2.00;;
5032;SDS011;2535;49.888;8.942;2023-08-17T06:29:13;15.93;;;2.03;;
5032;SDS011;2535;49.888;8.942;2023-08-17T06:31:39;16.40;;;2.20;;
5032;SDS011;2535;49.888;8.942;2023-08-17T06:34:05;16.13;;;2.23;;
5032;SDS011;2535;49.888;8.942;2023-08-17T06:36:31;17.43;;;2.90;;
5032;SDS011;2535;49.888;8.942;2023-08-17T06:38:58;17.97;;;3.30;;
5032;SDS011;2535;49.888;8.942;2023-08-17T06:41:24;20.90;;;3.70;;
5032;SDS011;2535;49.888;8.942;2023-08-17T06:43:50;18.97;;;3.30;;
5032;SDS011;2535;49.888;8.942;2023-08-17T06:46:16;20.40;;;3.03;;
5032;SDS011;2535;49.888;8.942;2023-08-17T06:48:43;18.53;;;3.20;;
5032;SDS011;2535;49.888;8.942;2023-08-17T06:51:09;18.47;;;2.90;;
5032;SDS011;2535;49.888;8.942;2023-08-17T06:53:35;17.70;;;3.20;;
5032;SDS011;2535;49.888;8.942;2023-08-17T06:56:01;19.60;;;3.13;;
5032;SDS011;2535;49.888;8.942;2023-08-17T06:58:27;17.10;;;3.23;;
5032;SDS011;2535;49.888;8.942;2023-08-17T07:00:53;17.47;;;2.57;;
5032;SDS011;2535;49.888;8.942;2023-08-17T07:03:19;17.83;;;2.97;;
5032;SDS011;2535;49.888;8.942;2023-08-17T07:05:46;15.93;;;2.27;;
5032;SDS011;2535;49.888;8.942;2023-08-17T07:08:14;16.70;;;2.80;;
5032;SDS011;2535;49.888;8.942;2023-08-17T07:10:43;16.97;;;2.20;;
5032;SDS011;2535;49.888;8.942;2023-08-17T07:13:09;19.30;;;2.83;;
5032;SDS011;2535;49.888;8.942;2023-08-17T07:15:37;16.13;;;2.50;;
5032;SDS011;2535;49.888;8.942;2023-08-17T07:18:04;17.13;;;2.83;;
5032;SDS011;2535;49.888;8.942;2023-08-17T07:20:31;16.90;;;3.00;;
5032;SDS011;2535;49.888;8.942;2023-08-17T07:22:57;18.97;;;3.03;;
5032;SDS011;2535;49.888;8.942;2023-08-17T07:25:23;18.23;;;3.10;;
5032;SDS011;2535;49.888;8.942;2023-08-17T07:27:49;16.50;;;3.00;;
5032;SDS011;2535;49.888;8.942;2023-08-17T07:30:15;16.87;;;3.00;;
5032;SDS011;2535;49.888;8.942;2023-08-17T07:32:41;16.17;;;2.73;;
5032;SDS011;2535;49.888;8.942;2023-08-17T07:35:11;19.03;;;3.73;;
5032;SDS011;2535;49.888;8.942;2023-08-17T07:37:39;17.63;;;3.27;;
5032;SDS011;2535;49.888;8.942;2023-08-17T07:40:05;16.60;;;2.97;;
5032;SDS011;2535;49.888;8.942;2023-08-17T07:42:32;15.67;;;3.03;;
5032;SDS011;2535;49.888;8.942;2023-08-17T07:44:58;19.87;;;3.67;;
5032;SDS011;2535;49.888;8.942;2023-08-17T07:47:24;18.67;;;3.53;;
5032;SDS011;2535;49.888;8.942;2023-08-17T07:49:50;16.60;;;2.43;;
5032;SDS011;2535;49.888;8.942;2023-08-17T07:52:16;17.07;;;3.17;;
5032;SDS011;2535;49.888;8.942;2023-08-17T07:54:42;18.77;;;3.77;;
5032;SDS011;2535;49.888;8.942;2023-08-17T07:57:10;15.73;;;3.20;;
5032;SDS011;2535;49.888;8.942;2023-08-17T07:59:36;15.40;;;3.07;;
5032;SDS011;2535;49.888;8.942;2023-08-17T08:02:03;16.03;;;2.70;;
5032;SDS011;2535;49.888;8.942;2023-08-17T08:04:33;21.63;;;3.03;;
5032;SDS011;2535;49.888;8.942;2023-08-17T08:06:59;14.60;;;2.37;;
5032;SDS011;2535;49.888;8.942;2023-08-17T08:09:25;17.23;;;2.70;;
5032;SDS011;2535;49.888;8.942;2023-08-17T08:11:51;14.70;;;2.17;;
5032;SDS011;2535;49.888;8.942;2023-08-17T08:14:17;15.90;;;3.27;;
5032;SDS011;2535;49.888;8.942;2023-08-17T08:16:43;16.40;;;2.93;;
5032;SDS011;2535;49.888;8.942;2023-08-17T08:19:08;15.83;;;3.27;;
5032;SDS011;2535;49.888;8.942;2023-08-17T08:21:35;13.97;;;2.03;;
5032;SDS011;2535;49.888;8.942;2023-08-17T08:24:00;14.20;;;2.10;;
5032;SDS011;2535;49.888;8.942;2023-08-17T08:26:26;16.37;;;2.83;;
5032;SDS011;2535;49.888;8.942;2023-08-17T08:28:52;18.60;;;2.50;;
5032;SDS011;2535;49.888;8.942;2023-08-17T08:31:18;14.30;;;2.27;;
5032;SDS011;2535;49.888;8.942;2023-08-17T08:33:46;13.73;;;2.10;;
5032;SDS011;2535;49.888;8.942;2023-08-17T08:36:12;14.40;;;2.30;;
5032;SDS011;2535;49.888;8.942;2023-08-17T08:38:38;18.50;;;3.30;;
5032;SDS011;2535;49.888;8.942;2023-08-17T08:41:05;14.27;;;2.00;;
5032;SDS011;2535;49.888;8.942;2023-08-17T08:43:31;14.70;;;2.60;;
5032;SDS011;2535;49.888;8.942;2023-08-17T08:45:58;15.53;;;3.00;;
5032;SDS011;2535;49.888;8.942;2023-08-17T08:48:24;15.87;;;3.40;;
5032;SDS011;2535;49.888;8.942;2023-08-17T08:50:54;15.43;;;3.37;;
5032;SDS011;2535;49.888;8.942;2023-08-17T08:53:28;16.87;;;3.80;;
5032;SDS011;2535;49.888;8.942;2023-08-17T08:55:57;18.73;;;3.40;;
5032;SDS011;2535;49.888;8.942;2023-08-17T08:58:24;16.10;;;3.23;;
5032;SDS011;2535;49.888;8.942;2023-08-17T09:00:51;17.20;;;4.20;;
5032;SDS011;2535;49.888;8.942;2023-08-17T09:03:20;16.87;;;3.43;;
5032;SDS011;2535;49.888;8.942;2023-08-17T09:05:47;16.37;;;4.00;;
5032;SDS011;2535;49.888;8.942;2023-08-17T09:08:13;15.40;;;3.03;;
5032;SDS011;2535;49.888;8.942;2023-08-17T09:10:41;15.87;;;3.40;;
5032;SDS011;2535;49.888;8.942;2023-08-17T09:13:09;15.80;;;3.27;;
5032;SDS011;2535;49.888;8.942;2023-08-17T09:15:35;18.43;;;3.30;;
5032;SDS011;2535;49.888;8.942;2023-08-17T09:18:01;18.47;;;4.20;;
5032;SDS011;2535;49.888;8.942;2023-08-17T09:20:43;14.77;;;2.70;;
5032;SDS011;2535;49.888;8.942;2023-08-17T09:23:16;17.27;;;2.90;;
5032;SDS011;2535;49.888;8.942;2023-08-17T09:25:44;15.27;;;2.67;;
5032;SDS011;2535;49.888;8.942;2023-08-17T09:28:14;14.27;;;2.90;;
5032;SDS011;2535;49.888;8.942;2023-08-17T09:30:54;15.27;;;3.73;;
5032;SDS011;2535;49.888;8.942;2023-08-17T09:33:20;15.40;;;2.70;;
5032;SDS011;2535;49.888;8.942;2023-08-17T09:35:47;13.87;;;2.70;;
5032;SDS011;2535;49.888;8.942;2023-08-17T09:38:13;16.87;;;3.20;;
5032;SDS011;2535;49.888;8.942;2023-08-17T09:40:39;17.10;;;3.60;;
5032;SDS011;2535;49.888;8.942;2023-08-17T09:43:05;16.70;;;3.60;;
5032;SDS011;2535;49.888;8.942;2023-08-17T09:45:31;15.70;;;3.00;;
5032;SDS011;2535;49.888;8.942;2023-08-17T09:47:58;18.10;;;3.87;;
5032;SDS011;2535;49.888;8.942;2023-08-17T09:50:25;15.03;;;3.17;;
5032;SDS011;2535;49.888;8.942;2023-08-17T09:52:52;15.30;;;2.90;;
5032;SDS011;2535;49.888;8.942;2023-08-17T09:55:20;13.63;;;2.97;;
5032;SDS011;2535;49.888;8.942;2023-08-17T09:57:46;19.00;;;3.93;;
5032;SDS011;2535;49.888;8.942;2023-08-17T10:00:15;14.77;;;2.60;;
5032;SDS011;2535;49.888;8.942;2023-08-17T10:02:52;16.07;;;3.67;;
5032;SDS011;2535;49.888;8.942;2023-08-17T10:05:19;14.63;;;3.07;;
5032;SDS011;2535;49.888;8.942;2023-08-17T10:07:46;14.27;;;3.23;;
5032;SDS011;2535;49.888;8.942;2023-08-17T10:10:16;15.53;;;3.00;;
5032;SDS011;2535;49.888;8.942;2023-08-17T10:12:45;15.93;;;2.33;;
5032;SDS011;2535;49.888;8.942;2023-08-17T10:15:15;15.17;;;3.10;;
5032;SDS011;2535;49.888;8.942;2023-08-17T10:18:02;16.43;;;3.37;;
5032;SDS011;2535;49.888;8.942;2023-08-17T10:20:30;13.97;;;2.80;;
5032;SDS011;2535;49.888;8.942;2023-08-17T10:23:01;14.00;;;2.70;;
5032;SDS011;2535;49.888;8.942;2023-08-17T10:25:31;13.73;;;2.50;;
5032;SDS011;2535;49.888;8.942;2023-08-17T10:28:03;14.60;;;3.00;;
5032;SDS011;2535;49.888;8.942;2023-08-17T10:30:29;13.03;;;2.60;;
5032;SDS011;2535;49.888;8.942;2023-08-17T10:32:55;15.13;;;2.90;;
5032;SDS011;2535;49.888;8.942;2023-08-17T10:35:21;15.53;;;3.00;;
5032;SDS011;2535;49.888;8.942;2023-08-17T10:37:52;14.33;;;2.77;;
5032;SDS011;2535;49.888;8.942;2023-08-17T10:40:27;11.93;;;2.20;;
5032;SDS011;2535;49.888;8.942;2023-08-17T10:42:53;13.60;;;2.60;;
5032;SDS011;2535;49.888;8.942;2023-08-17T10:45:26;13.93;;;2.80;;
5032;SDS011;2535;49.888;8.942;2023-08-17T10:48:00;12.93;;;2.30;;
5032;SDS011;2535;49.888;8.942;2023-08-17T10:50:26;11.70;;;1.80;;
5032;SDS011;2535;49.888;8.942;2023-08-17T10:52:53;14.30;;;3.07;;
5032;SDS011;2535;49.888;8.942;2023-08-17T10:55:34;13.43;;;3.10;;
5032;SDS011;2535;49.888;8.942;2023-08-17T10:58:02;13.23;;;1.90;;
5032;SDS011;2535;49.888;8.942;2023-08-17T11:00:35;11.70;;;1.87;;
5032;SDS011;2535;49.888;8.942;2023-08-17T11:03:08;17.27;;;2.87;;
5032;SDS011;2535;49.888;8.942;2023-08-17T11:08:06;14.80;;;1.93;;
5032;SDS011;2535;49.888;8.942;2023-08-17T11:10:36;12.70;;;2.30;;
5032;SDS011;2535;49.888;8.942;2023-08-17T11:13:03;14.83;;;3.13;;
5032;SDS011;2535;49.888;8.942;2023-08-17T11:15:42;12.43;;;2.27;;
5032;SDS011;2535;49.888;8.942;2023-08-17T11:18:09;16.10;;;2.90;;
5032;SDS011;2535;49.888;8.942;2023-08-17T11:20:36;15.20;;;2.97;;
5032;SDS011;2535;49.888;8.942;2023-08-17T11:23:05;14.60;;;2.83;;
5032;SDS011;2535;49.888;8.942;2023-08-17T11:25:33;13.33;;;3.07;;
5032;SDS011;2535;49.888;8.942;2023-08-17T11:27:59;15.30;;;3.00;;
5032;SDS011;2535;49.888;8.942;2023-08-17T11:30:26;12.63;;;2.20;;
5032;SDS011;2535;49.888;8.942;2023-08-17T11:32:55;14.00;;;3.07;;
5032;SDS011;2535;49.888;8.942;2023-08-17T11:35:21;14.57;;;2.87;;
5032;SDS011;2535;49.888;8.942;2023-08-17T11:37:47;15.30;;;3.20;;
5032;SDS011;2535;49.888;8.942;2023-08-17T11:40:13;13.10;;;2.30;;
5032;SDS011;2535;49.888;8.942;2023-08-17T11:42:41;13.80;;;2.57;;
5032;SDS011;2535;49.888;8.942;2023-08-17T11:45:08;14.93;;;3.10;;
5032;SDS011;2535;49.888;8.942;2023-08-17T11:47:40;14.70;;;2.73;;
5032;SDS011;2535;49.888;8.942;2023-08-17T11:50:08;14.30;;;2.90;;
5032;SDS011;2535;49.888;8.942;2023-08-17T11:52:38;14.20;;;2.53;;
5032;SDS011;2535;49.888;8.942;2023-08-17T11:55:05;13.50;;;2.87;;
5032;SDS011;2535;49.888;8.942;2023-08-17T11:57:34;15.00;;;2.27;;
5032;SDS011;2535;49.888;8.942;2023-08-17T12:00:00;13.90;;;2.60;;
5032;SDS011;2535;49.888;8.942;2023-08-17T12:02:27;14.43;;;2.40;;
5032;SDS011;2535;49.888;8.942;2023-08-17T12:04:54;12.17;;;2.40;;
5032;SDS011;2535;49.888;8.942;2023-08-17T12:07:21;12.27;;;1.93;;
5032;SDS011;2535;49.888;8.942;2023-08-17T12:09:48;12.67;;;2.10;;
5032;SDS011;2535;49.888;8.942;2023-08-17T12:12:17;13.40;;;2.57;;
5032;SDS011;2535;49.888;8.942;2023-08-17T12:14:43;11.87;;;2.07;;
5032;SDS011;2535;49.888;8.942;2023-08-17T12:17:18;15.00;;;3.00;;
5032;SDS011;2535;49.888;8.942;2023-08-17T12:19:48;13.37;;;2.87;;
5032;SDS011;2535;49.888;8.942;2023-08-17T12:22:14;15.20;;;1.80;;
5032;SDS011;2535;49.888;8.942;2023-08-17T12:24:41;12.20;;;1.90;;
5032;SDS011;2535;49.888;8.942;2023-08-17T12:27:07;11.87;;;2.00;;
5032;SDS011;2535;49.888;8.942;2023-08-17T12:29:48;11.50;;;2.00;;
5032;SDS011;2535;49.888;8.942;2023-08-17T12:32:20;11.80;;;1.80;;
5032;SDS011;2535;49.888;8.942;2023-08-17T12:34:54;11.67;;;2.00;;
5032;SDS011;2535;49.888;8.942;2023-08-17T12:37:22;11.60;;;2.10;;
5032;SDS011;2535;49.888;8.942;2023-08-17T12:39:48;10.80;;;1.70;;
5032;SDS011;2535;49.888;8.942;2023-08-17T12:42:16;12.20;;;1.90;;
5032;SDS011;2535;49.888;8.942;2023-08-17T12:44:43;10.37;;;1.50;;
5032;SDS011;2535;49.888;8.942;2023-08-17T12:47:09;10.63;;;1.47;;
5032;SDS011;2535;49.888;8.942;2023-08-17T12:49:35;11.20;;;2.10;;
5032;SDS011;2535;49.888;8.942;2023-08-17T12:52:03;12.20;;;1.70;;
5032;SDS011;2535;49.888;8.942;2023-08-17T12:54:34;11.37;;;1.47;;
5032;SDS011;2535;49.888;8.942;2023-08-17T12:57:00;11.43;;;1.60;;
5032;SDS011;2535;49.888;8.942;2023-08-17T12:59:27;10.80;;;1.67;;
5032;SDS011;2535;49.888;8.942;2023-08-17T13:01:53;12.93;;;2.20;;
5032;SDS011;2535;49.888;8.942;2023-08-17T13:04:19;11.50;;;1.63;;
5032;SDS011;2535;49.888;8.942;2023-08-17T13:06:46;10.83;;;1.57;;
5032;SDS011;2535;49.888;8.942;2023-08-17T13:09:12;10.97;;;1.50;;
5032;SDS011;2535;49.888;8.942;2023-08-17T13:11:39;11.90;;;2.00;;
5032;SDS011;2535;49.888;8.942;2023-08-17T13:14:05;11.27;;;1.73;;
5032;SDS011;2535;49.888;8.942;2023-08-17T13:16:31;12.20;;;1.30;;
5032;SDS011;2535;49.888;8.942;2023-08-17T13:18:59;10.30;;;1.40;;
5032;SDS011;2535;49.888;8.942;2023-08-17T13:21:28;12.27;;;1.83;;
5032;SDS011;2535;49.888;8.942;2023-08-17T13:23:58;10.93;;;1.43;;
5032;SDS011;2535;49.888;8.942;2023-08-17T13:26:24;12.60;;;1.70;;
5032;SDS011;2535;49.888;8.942;2023-08-17T13:28:50;10.70;;;1.67;;
5032;SDS011;2535;49.888;8.942;2023-08-17T13:31:16;10.97;;;1.73;;
5032;SDS011;2535;49.888;8.942;2023-08-17T13:33:42;11.43;;;1.70;;
5032;SDS011;2535;49.888;8.942;2023-08-17T13:36:08;10.93;;;1.73;;
5032;SDS011;2535;49.888;8.942;2023-08-17T13:38:35;10.40;;;1.23;;
5032;SDS011;2535;49.888;8.942;2023-08-17T13:41:03;10.27;;;1.50;;
5032;SDS011;2535;49.888;8.942;2023-08-17T13:43:30;11.53;;;1.90;;
5032;SDS011;2535;49.888;8.942;2023-08-17T13:45:56;10.40;;;1.57;;
5032;SDS011;2535;49.888;8.942;2023-08-17T13:48:22;13.40;;;1.90;;
5032;SDS011;2535;49.888;8.942;2023-08-17T13:50:48;10.70;;;1.50;;
5032;SDS011;2535;49.888;8.942;2023-08-17T13:53:16;15.13;;;1.90;;
5032;SDS011;2535;49.888;8.942;2023-08-17T13:55:42;12.20;;;1.50;;
5032;SDS011;2535;49.888;8.942;2023-08-17T13:58:08;10.80;;;1.70;;
5032;SDS011;2535;49.888;8.942;2023-08-17T14:00:38;10.50;;;1.47;;
5032;SDS011;2535;49.888;8.942;2023-08-17T14:03:04;10.40;;;1.43;;
5032;SDS011;2535;49.888;8.942;2023-08-17T14:05:31;9.73;;;1.30;;
5032;SDS011;2535;49.888;8.942;2023-08-17T14:08:00;11.57;;;1.70;;
5032;SDS011;2535;49.888;8.942;2023-08-17T14:10:28;12.33;;;2.13;;
5032;SDS011;2535;49.888;8.942;2023-08-17T14:12:58;10.30;;;1.63;;
5032;SDS011;2535;49.888;8.942;2023-08-17T14:15:24;10.70;;;1.73;;
5032;SDS011;2535;49.888;8.942;2023-08-17T14:17:50;11.27;;;1.90;;
5032;SDS011;2535;49.888;8.942;2023-08-17T14:20:16;10.67;;;1.57;;
5032;SDS011;2535;49.888;8.942;2023-08-17T14:22:41;10.50;;;1.50;;
5032;SDS011;2535;49.888;8.942;2023-08-17T14:25:07;10.10;;;1.63;;
5032;SDS011;2535;49.888;8.942;2023-08-17T14:27:34;10.83;;;2.10;;
5032;SDS011;2535;49.888;8.942;2023-08-17T14:30:00;13.67;;;1.80;;
5032;SDS011;2535;49.888;8.942;2023-08-17T14:32:27;11.00;;;1.93;;
5032;SDS011;2535;49.888;8.942;2023-08-17T14:34:54;13.47;;;1.67;;
5032;SDS011;2535;49.888;8.942;2023-08-17T14:37:20;12.03;;;1.50;;
5032;SDS011;2535;49.888;8.942;2023-08-17T14:39:46;9.97;;;1.80;;
5032;SDS011;2535;49.888;8.942;2023-08-17T14:42:13;10.73;;;2.10;;
5032;SDS011;2535;49.888;8.942;2023-08-17T14:44:39;10.33;;;1.70;;
5032;SDS011;2535;49.888;8.942;2023-08-17T14:47:05;12.60;;;1.87;;
5032;SDS011;2535;49.888;8.942;2023-08-17T14:49:31;10.67;;;1.63;;
5032;SDS011;2535;49.888;8.942;2023-08-17T14:51:56;9.47;;;1.60;;
5032;SDS011;2535;49.888;8.942;2023-08-17T14:54:24;9.40;;;1.70;;
5032;SDS011;2535;49.888;8.942;2023-08-17T14:56:51;8.83;;;1.53;;
5032;SDS011;2535;49.888;8.942;2023-08-17T14:59:17;8.43;;;1.20;;
5032;SDS011;2535;49.888;8.942;2023-08-17T15:01:45;9.93;;;1.60;;
5032;SDS011;2535;49.888;8.942;2023-08-17T15:04:11;8.97;;;1.40;;
5032;SDS011;2535;49.888;8.942;2023-08-17T15:06:39;8.60;;;1.53;;